sensor_id;sensor_type;location;lat;lon;timestamp;P1;durP1;ratioP1;P2;durP2;ratioP2
51010;SDS011;37038;50.182;8.624;2023-02-28T00:02:29;8.27;;;7.57;;
51010;SDS011;37038;50.182;8.624;2023-02-28T00:05:18;9.18;;;7.03;;
51010;SDS011;37038;50.182;8.624;2023-02-28T00:08:07;9.13;;;8.32;;
51010;SDS011;37038;50.182;8.624;2023-02-28T00:10:56;9.27;;;7.57;;
51010;SDS011;37038;50.182;8.624;2023-02-28T00:13:48;10.57;;;7.35;;
51010;SDS011;37038;50.182;8.624;2023-02-28T00:16:38;9.27;;;7.55;;
51010;SDS011;37038;50.182;8.624;2023-02-28T00:19:26;8.40;;;7.60;;
51010;SDS011;37038;50.182;8.624;2023-02-28T00:22:15;7.82;;;7.07;;
51010;SDS011;37038;50.182;8.624;2023-02-28T00:25:05;8.57;;;7.78;;
51010;SDS011;37038;50.182;8.624;2023-02-28T00:27:54;8.52;;;7.72;;
51010;SDS011;37038;50.182;8.624;2023-02-28T00:30:42;11.32;;;8.70;;
51010;SDS011;37038;50.182;8.624;2023-02-28T00:33:30;10.10;;;9.15;;
51010;SDS011;37038;50.182;8.624;2023-02-28T00:36:17;10.95;;;8.35;;
51010;SDS011;37038;50.182;8.624;2023-02-28T00:39:05;9.75;;;8.55;;
51010;SDS011;37038;50.182;8.624;2023-02-28T00:41:52;13.68;;;9.32;;
51010;SDS011;37038;50.182;8.624;2023-02-28T00:44:40;10.27;;;9.23;;
51010;SDS011;37038;50.182;8.624;2023-02-28T00:47:28;12.10;;;9.85;;
51010;SDS011;37038;50.182;8.624;2023-02-28T00:50:18;10.35;;;9.25;;
51010;SDS011;37038;50.182;8.624;2023-02-28T00:53:07;9.45;;;8.27;;
51010;SDS011;37038;50.182;8.624;2023-02-28T00:55:54;10.52;;;9.43;;
51010;SDS011;37038;50.182;8.624;2023-02-28T00:58:42;13.00;;;10.07;;
51010;SDS011;37038;50.182;8.624;2023-02-28T01:01:30;11.85;;;9.38;;
51010;SDS011;37038;50.182;8.624;2023-02-28T01:04:18;14.40;;;10.48;;
51010;SDS011;37038;50.182;8.624;2023-02-28T01:07:17;11.93;;;9.57;;
51010;SDS011;37038;50.182;8.624;2023-02-28T01:10:05;10.60;;;9.48;;
51010;SDS011;37038;50.182;8.624;2023-02-28T01:12:53;10.77;;;9.63;;
51010;SDS011;37038;50.182;8.624;2023-02-28T01:15:42;14.90;;;10.60;;
51010;SDS011;37038;50.182;8.624;2023-02-28T01:18:33;11.38;;;10.18;;
51010;SDS011;37038;50.182;8.624;2023-02-28T01:21:21;14.43;;;10.55;;
51010;SDS011;37038;50.182;8.624;2023-02-28T01:24:09;11.95;;;10.65;;
51010;SDS011;37038;50.182;8.624;2023-02-28T01:26:56;13.13;;;10.80;;
51010;SDS011;37038;50.182;8.624;2023-02-28T01:29:44;13.90;;;11.77;;
51010;SDS011;37038;50.182;8.624;2023-02-28T01:32:31;13.60;;;11.10;;
51010;SDS011;37038;50.182;8.624;2023-02-28T01:35:19;15.05;;;11.93;;
51010;SDS011;37038;50.182;8.624;2023-02-28T01:38:07;15.57;;;11.25;;
51010;SDS011;37038;50.182;8.624;2023-02-28T01:41:08;11.90;;;10.70;;
51010;SDS011;37038;50.182;8.624;2023-02-28T01:47:35;14.57;;;10.85;;
51010;SDS011;37038;50.182;8.624;2023-02-28T01:50:28;13.10;;;11.32;;
51010;SDS011;37038;50.182;8.624;2023-02-28T01:53:21;18.83;;;11.50;;
51010;SDS011;37038;50.182;8.624;2023-02-28T01:56:17;11.95;;;10.65;;
51010;SDS011;37038;50.182;8.624;2023-02-28T01:59:10;14.77;;;11.60;;
51010;SDS011;37038;50.182;8.624;2023-02-28T02:02:01;14.13;;;10.90;;
51010;SDS011;37038;50.182;8.624;2023-02-28T02:04:50;15.05;;;10.98;;
51010;SDS011;37038;50.182;8.624;2023-02-28T02:07:44;12.02;;;10.45;;
51010;SDS011;37038;50.182;8.624;2023-02-28T02:10:36;16.42;;;10.80;;
51010;SDS011;37038;50.182;8.624;2023-02-28T02:36:03;16.25;;;10.55;;
51010;SDS011;37038;50.182;8.624;2023-02-28T02:38:50;13.93;;;10.27;;
51010;SDS011;37038;50.182;8.624;2023-02-28T02:41:47;12.80;;;10.02;;
51010;SDS011;37038;50.182;8.624;2023-02-28T02:47:37;15.57;;;10.95;;
51010;SDS011;37038;50.182;8.624;2023-02-28T02:50:31;12.48;;;10.23;;
51010;SDS011;37038;50.182;8.624;2023-02-28T02:53:25;14.50;;;10.85;;
51010;SDS011;37038;50.182;8.624;2023-02-28T02:56:18;14.20;;;10.75;;
51010;SDS011;37038;50.182;8.624;2023-02-28T02:59:10;13.43;;;10.43;;
51010;SDS011;37038;50.182;8.624;2023-02-28T03:02:01;14.38;;;10.73;;
51010;SDS011;37038;50.182;8.624;2023-02-28T03:04:52;13.63;;;10.57;;
51010;SDS011;37038;50.182;8.624;2023-02-28T03:07:47;11.45;;;9.65;;
51010;SDS011;37038;50.182;8.624;2023-02-28T03:10:36;12.07;;;10.38;;
51010;SDS011;37038;50.182;8.624;2023-02-28T03:16:33;16.23;;;11.05;;
51010;SDS011;37038;50.182;8.624;2023-02-28T03:22:45;12.20;;;10.40;;
51010;SDS011;37038;50.182;8.624;2023-02-28T03:25:42;12.70;;;10.73;;
51010;SDS011;37038;50.182;8.624;2023-02-28T03:31:48;13.90;;;11.38;;
51010;SDS011;37038;50.182;8.624;2023-02-28T03:34:59;13.98;;;11.60;;
51010;SDS011;37038;50.182;8.624;2023-02-28T03:38:03;17.90;;;11.77;;
51010;SDS011;37038;50.182;8.624;2023-02-28T03:41:05;14.50;;;11.27;;
51010;SDS011;37038;50.182;8.624;2023-02-28T03:44:03;13.05;;;11.60;;
51010;SDS011;37038;50.182;8.624;2023-02-28T03:47:03;15.88;;;12.75;;
51010;SDS011;37038;50.182;8.624;2023-02-28T03:50:05;17.35;;;12.25;;
51010;SDS011;37038;50.182;8.624;2023-02-28T03:52:58;14.35;;;12.45;;
51010;SDS011;37038;50.182;8.624;2023-02-28T03:55:53;13.10;;;11.35;;
51010;SDS011;37038;50.182;8.624;2023-02-28T03:59:00;20.33;;;12.70;;
51010;SDS011;37038;50.182;8.624;2023-02-28T04:01:54;19.23;;;11.38;;
51010;SDS011;37038;50.182;8.624;2023-02-28T04:04:45;12.65;;;10.93;;
51010;SDS011;37038;50.182;8.624;2023-02-28T04:07:36;13.10;;;11.20;;
51010;SDS011;37038;50.182;8.624;2023-02-28T04:10:25;15.18;;;11.30;;
51010;SDS011;37038;50.182;8.624;2023-02-28T04:13:12;14.50;;;10.43;;
51010;SDS011;37038;50.182;8.624;2023-02-28T04:16:00;15.07;;;11.20;;
51010;SDS011;37038;50.182;8.624;2023-02-28T04:18:48;15.85;;;10.75;;
51010;SDS011;37038;50.182;8.624;2023-02-28T04:21:36;12.43;;;11.13;;
51010;SDS011;37038;50.182;8.624;2023-02-28T04:24:27;13.35;;;10.30;;
51010;SDS011;37038;50.182;8.624;2023-02-28T04:27:15;11.75;;;10.38;;
51010;SDS011;37038;50.182;8.624;2023-02-28T04:30:03;11.73;;;9.63;;
51010;SDS011;37038;50.182;8.624;2023-02-28T04:32:51;13.52;;;10.82;;
51010;SDS011;37038;50.182;8.624;2023-02-28T04:35:38;14.23;;;10.38;;
51010;SDS011;37038;50.182;8.624;2023-02-28T04:38:27;12.65;;;9.88;;
51010;SDS011;37038;50.182;8.624;2023-02-28T04:41:15;11.93;;;9.57;;
51010;SDS011;37038;50.182;8.624;2023-02-28T04:44:03;13.30;;;10.00;;
51010;SDS011;37038;50.182;8.624;2023-02-28T04:46:51;12.25;;;9.40;;
51010;SDS011;37038;50.182;8.624;2023-02-28T04:49:38;12.90;;;9.30;;
51010;SDS011;37038;50.182;8.624;2023-02-28T04:52:28;11.30;;;9.30;;
51010;SDS011;37038;50.182;8.624;2023-02-28T04:55:16;12.77;;;10.48;;
51010;SDS011;37038;50.182;8.624;2023-02-28T04:58:03;15.07;;;9.63;;
51010;SDS011;37038;50.182;8.624;2023-02-28T05:00:52;15.02;;;10.27;;
51010;SDS011;37038;50.182;8.624;2023-02-28T05:03:40;11.20;;;9.10;;
51010;SDS011;37038;50.182;8.624;2023-02-28T05:06:29;11.15;;;9.15;;
51010;SDS011;37038;50.182;8.624;2023-02-28T05:09:18;9.98;;;8.70;;
51010;SDS011;37038;50.182;8.624;2023-02-28T05:12:06;10.73;;;8.65;;
51010;SDS011;37038;50.182;8.624;2023-02-28T05:14:55;9.73;;;8.55;;
51010;SDS011;37038;50.182;8.624;2023-02-28T05:17:43;9.70;;;8.10;;
51010;SDS011;37038;50.182;8.624;2023-02-28T05:20:31;11.43;;;8.80;;
51010;SDS011;37038;50.182;8.624;2023-02-28T05:23:18;12.93;;;7.90;;
51010;SDS011;37038;50.182;8.624;2023-02-28T05:26:09;9.30;;;8.27;;
51010;SDS011;37038;50.182;8.624;2023-02-28T05:28:56;9.02;;;7.88;;
51010;SDS011;37038;50.182;8.624;2023-02-28T05:31:44;13.80;;;8.60;;
51010;SDS011;37038;50.182;8.624;2023-02-28T05:34:32;9.98;;;7.70;;
51010;SDS011;37038;50.182;8.624;2023-02-28T05:37:20;11.65;;;8.48;;
51010;SDS011;37038;50.182;8.624;2023-02-28T05:40:08;9.77;;;8.35;;
51010;SDS011;37038;50.182;8.624;2023-02-28T05:42:57;12.55;;;8.15;;
51010;SDS011;37038;50.182;8.624;2023-02-28T05:45:45;10.57;;;8.13;;
51010;SDS011;37038;50.182;8.624;2023-02-28T05:48:33;8.18;;;7.38;;
51010;SDS011;37038;50.182;8.624;2023-02-28T05:51:22;8.23;;;6.68;;
51010;SDS011;37038;50.182;8.624;2023-02-28T05:54:09;9.85;;;7.30;;
51010;SDS011;37038;50.182;8.624;2023-02-28T05:56:59;8.68;;;7.60;;
51010;SDS011;37038;50.182;8.624;2023-02-28T05:59:47;9.95;;;7.78;;
51010;SDS011;37038;50.182;8.624;2023-02-28T06:02:35;11.05;;;7.45;;
51010;SDS011;37038;50.182;8.624;2023-02-28T06:05:23;10.10;;;8.38;;
51010;SDS011;37038;50.182;8.624;2023-02-28T06:08:11;14.15;;;8.88;;
51010;SDS011;37038;50.182;8.624;2023-02-28T06:11:02;10.52;;;7.22;;
51010;SDS011;37038;50.182;8.624;2023-02-28T06:13:52;14.57;;;8.70;;
51010;SDS011;37038;50.182;8.624;2023-02-28T06:16:44;9.75;;;8.43;;
51010;SDS011;37038;50.182;8.624;2023-02-28T06:19:37;14.82;;;8.45;;
51010;SDS011;37038;50.182;8.624;2023-02-28T06:22:26;16.38;;;9.05;;
51010;SDS011;37038;50.182;8.624;2023-02-28T06:25:17;10.18;;;8.75;;
51010;SDS011;37038;50.182;8.624;2023-02-28T06:28:09;14.98;;;8.95;;
51010;SDS011;37038;50.182;8.624;2023-02-28T06:30:57;13.70;;;8.18;;
51010;SDS011;37038;50.182;8.624;2023-02-28T06:33:45;10.15;;;8.45;;
51010;SDS011;37038;50.182;8.624;2023-02-28T06:36:33;12.18;;;8.85;;
51010;SDS011;37038;50.182;8.624;2023-02-28T06:39:24;12.90;;;9.13;;
51010;SDS011;37038;50.182;8.624;2023-02-28T06:42:12;9.48;;;8.25;;
51010;SDS011;37038;50.182;8.624;2023-02-28T06:45:00;13.98;;;9.05;;
51010;SDS011;37038;50.182;8.624;2023-02-28T06:47:50;14.63;;;8.20;;
51010;SDS011;37038;50.182;8.624;2023-02-28T06:50:39;9.77;;;8.68;;
51010;SDS011;37038;50.182;8.624;2023-02-28T06:53:27;11.55;;;8.90;;
51010;SDS011;37038;50.182;8.624;2023-02-28T06:56:18;13.65;;;9.88;;
51010;SDS011;37038;50.182;8.624;2023-02-28T06:59:20;14.80;;;9.05;;
51010;SDS011;37038;50.182;8.624;2023-02-28T07:02:08;12.32;;;8.80;;
51010;SDS011;37038;50.182;8.624;2023-02-28T07:04:56;11.07;;;8.60;;
51010;SDS011;37038;50.182;8.624;2023-02-28T07:07:43;14.75;;;9.57;;
51010;SDS011;37038;50.182;8.624;2023-02-28T07:10:37;10.10;;;8.38;;
51010;SDS011;37038;50.182;8.624;2023-02-28T07:13:25;16.52;;;9.52;;
51010;SDS011;37038;50.182;8.624;2023-02-28T07:16:13;10.38;;;9.25;;
51010;SDS011;37038;50.182;8.624;2023-02-28T07:19:01;10.82;;;8.93;;
51010;SDS011;37038;50.182;8.624;2023-02-28T07:21:52;11.32;;;9.75;;
51010;SDS011;37038;50.182;8.624;2023-02-28T07:24:39;11.18;;;9.02;;
51010;SDS011;37038;50.182;8.624;2023-02-28T07:27:27;15.98;;;9.73;;
51010;SDS011;37038;50.182;8.624;2023-02-28T07:30:15;10.75;;;8.32;;
51010;SDS011;37038;50.182;8.624;2023-02-28T07:33:05;14.70;;;8.65;;
51010;SDS011;37038;50.182;8.624;2023-02-28T07:36:12;10.82;;;8.60;;
51010;SDS011;37038;50.182;8.624;2023-02-28T07:39:05;10.30;;;8.95;;
51010;SDS011;37038;50.182;8.624;2023-02-28T07:41:53;9.80;;;8.43;;
51010;SDS011;37038;50.182;8.624;2023-02-28T07:44:41;12.00;;;8.60;;
51010;SDS011;37038;50.182;8.624;2023-02-28T07:47:30;10.63;;;8.65;;
51010;SDS011;37038;50.182;8.624;2023-02-28T07:50:18;14.48;;;8.10;;
51010;SDS011;37038;50.182;8.624;2023-02-28T07:53:06;11.00;;;8.57;;
51010;SDS011;37038;50.182;8.624;2023-02-28T07:55:54;11.57;;;8.30;;
51010;SDS011;37038;50.182;8.624;2023-02-28T07:58:45;9.98;;;7.82;;
51010;SDS011;37038;50.182;8.624;2023-02-28T08:01:33;9.60;;;7.95;;
51010;SDS011;37038;50.182;8.624;2023-02-28T08:04:22;10.02;;;7.90;;
51010;SDS011;37038;50.182;8.624;2023-02-28T08:07:12;8.98;;;7.82;;
51010;SDS011;37038;50.182;8.624;2023-02-28T08:10:02;10.27;;;7.72;;
51010;SDS011;37038;50.182;8.624;2023-02-28T08:12:55;8.13;;;7.23;;
51010;SDS011;37038;50.182;8.624;2023-02-28T08:15:45;9.70;;;6.97;;
51010;SDS011;37038;50.182;8.624;2023-02-28T08:18:34;9.57;;;7.32;;
51010;SDS011;37038;50.182;8.624;2023-02-28T08:21:23;9.30;;;7.30;;
51010;SDS011;37038;50.182;8.624;2023-02-28T08:24:11;8.25;;;7.43;;
51010;SDS011;37038;50.182;8.624;2023-02-28T08:26:59;8.93;;;7.80;;
51010;SDS011;37038;50.182;8.624;2023-02-28T08:29:47;7.97;;;6.57;;
51010;SDS011;37038;50.182;8.624;2023-02-28T08:32:34;8.38;;;6.85;;
51010;SDS011;37038;50.182;8.624;2023-02-28T08:35:23;8.00;;;6.88;;
51010;SDS011;37038;50.182;8.624;2023-02-28T08:38:13;7.32;;;6.57;;
51010;SDS011;37038;50.182;8.624;2023-02-28T08:41:11;8.48;;;6.72;;
51010;SDS011;37038;50.182;8.624;2023-02-28T08:44:02;8.80;;;6.78;;
51010;SDS011;37038;50.182;8.624;2023-02-28T08:46:52;6.38;;;5.60;;
51010;SDS011;37038;50.182;8.624;2023-02-28T08:49:49;6.50;;;5.90;;
51010;SDS011;37038;50.182;8.624;2023-02-28T08:52:54;7.40;;;5.28;;
51010;SDS011;37038;50.182;8.624;2023-02-28T08:55:47;10.15;;;6.00;;
51010;SDS011;37038;50.182;8.624;2023-02-28T08:58:48;7.90;;;5.95;;
51010;SDS011;37038;50.182;8.624;2023-02-28T09:01:43;8.85;;;6.30;;
51010;SDS011;37038;50.182;8.624;2023-02-28T09:04:34;7.53;;;5.90;;
51010;SDS011;37038;50.182;8.624;2023-02-28T09:07:22;6.32;;;5.35;;
51010;SDS011;37038;50.182;8.624;2023-02-28T09:10:15;6.53;;;5.73;;
51010;SDS011;37038;50.182;8.624;2023-02-28T09:13:20;6.57;;;5.93;;
51010;SDS011;37038;50.182;8.624;2023-02-28T09:16:11;8.35;;;5.97;;
51010;SDS011;37038;50.182;8.624;2023-02-28T09:19:01;7.65;;;6.20;;
51010;SDS011;37038;50.182;8.624;2023-02-28T09:21:49;6.72;;;5.53;;
51010;SDS011;37038;50.182;8.624;2023-02-28T09:24:40;6.82;;;6.13;;
51010;SDS011;37038;50.182;8.624;2023-02-28T09:27:28;7.75;;;5.85;;
51010;SDS011;37038;50.182;8.624;2023-02-28T09:30:19;8.98;;;6.07;;
51010;SDS011;37038;50.182;8.624;2023-02-28T09:33:07;6.80;;;6.10;;
51010;SDS011;37038;50.182;8.624;2023-02-28T09:35:59;7.05;;;5.63;;
51010;SDS011;37038;50.182;8.624;2023-02-28T09:38:49;6.80;;;5.60;;
51010;SDS011;37038;50.182;8.624;2023-02-28T09:41:48;8.15;;;6.38;;
51010;SDS011;37038;50.182;8.624;2023-02-28T09:44:41;6.82;;;6.13;;
51010;SDS011;37038;50.182;8.624;2023-02-28T09:53:26;6.65;;;5.95;;
51010;SDS011;37038;50.182;8.624;2023-02-28T09:56:39;7.63;;;6.57;;
51010;SDS011;37038;50.182;8.624;2023-02-28T09:59:35;8.82;;;6.82;;
51010;SDS011;37038;50.182;8.624;2023-02-28T10:05:43;7.40;;;6.40;;
51010;SDS011;37038;50.182;8.624;2023-02-28T10:11:46;7.72;;;6.85;;
51010;SDS011;37038;50.182;8.624;2023-02-28T10:14:35;7.80;;;6.82;;
51010;SDS011;37038;50.182;8.624;2023-02-28T10:17:31;10.25;;;7.30;;
51010;SDS011;37038;50.182;8.624;2023-02-28T10:20:46;8.95;;;6.78;;
51010;SDS011;37038;50.182;8.624;2023-02-28T10:23:36;8.18;;;7.32;;
51010;SDS011;37038;50.182;8.624;2023-02-28T10:26:24;8.20;;;7.18;;
51010;SDS011;37038;50.182;8.624;2023-02-28T10:29:16;7.10;;;6.32;;
51010;SDS011;37038;50.182;8.624;2023-02-28T10:32:06;7.68;;;6.80;;
51010;SDS011;37038;50.182;8.624;2023-02-28T10:38:05;8.90;;;6.55;;
51010;SDS011;37038;50.182;8.624;2023-02-28T10:41:16;9.27;;;7.35;;
51010;SDS011;37038;50.182;8.624;2023-02-28T10:44:22;7.68;;;6.93;;
51010;SDS011;37038;50.182;8.624;2023-02-28T10:47:16;8.35;;;7.30;;
51010;SDS011;37038;50.182;8.624;2023-02-28T10:50:23;9.25;;;7.82;;
51010;SDS011;37038;50.182;8.624;2023-02-28T10:56:17;8.57;;;7.45;;
51010;SDS011;37038;50.182;8.624;2023-02-28T11:01:58;8.07;;;7.20;;
51010;SDS011;37038;50.182;8.624;2023-02-28T11:04:49;8.80;;;7.03;;
51010;SDS011;37038;50.182;8.624;2023-02-28T11:07:37;8.65;;;7.18;;
51010;SDS011;37038;50.182;8.624;2023-02-28T11:10:39;7.15;;;6.45;;
51010;SDS011;37038;50.182;8.624;2023-02-28T11:13:35;8.45;;;7.55;;
51010;SDS011;37038;50.182;8.624;2023-02-28T11:16:37;9.98;;;7.65;;
51010;SDS011;37038;50.182;8.624;2023-02-28T11:19:26;8.40;;;7.50;;
51010;SDS011;37038;50.182;8.624;2023-02-28T11:22:28;7.38;;;6.60;;
51010;SDS011;37038;50.182;8.624;2023-02-28T11:28:30;8.02;;;6.72;;
51010;SDS011;37038;50.182;8.624;2023-02-28T11:31:20;7.50;;;6.70;;
51010;SDS011;37038;50.182;8.624;2023-02-28T11:34:23;9.05;;;6.85;;
51010;SDS011;37038;50.182;8.624;2023-02-28T11:37:15;7.25;;;6.53;;
51010;SDS011;37038;50.182;8.624;2023-02-28T11:40:12;8.82;;;7.18;;
51010;SDS011;37038;50.182;8.624;2023-02-28T11:43:25;8.52;;;6.28;;
51010;SDS011;37038;50.182;8.624;2023-02-28T11:46:20;10.65;;;7.13;;
51010;SDS011;37038;50.182;8.624;2023-02-28T11:55:44;9.05;;;6.50;;
51010;SDS011;37038;50.182;8.624;2023-02-28T12:08:03;8.65;;;7.20;;
51010;SDS011;37038;50.182;8.624;2023-02-28T12:11:02;8.98;;;7.68;;
51010;SDS011;37038;50.182;8.624;2023-02-28T12:13:58;8.73;;;7.35;;
51010;SDS011;37038;50.182;8.624;2023-02-28T12:17:15;10.63;;;8.55;;
51010;SDS011;37038;50.182;8.624;2023-02-28T12:20:27;10.20;;;7.95;;
51010;SDS011;37038;50.182;8.624;2023-02-28T12:26:36;11.40;;;7.85;;
51010;SDS011;37038;50.182;8.624;2023-02-28T12:32:32;9.57;;;8.35;;
51010;SDS011;37038;50.182;8.624;2023-02-28T12:35:32;8.23;;;7.38;;
51010;SDS011;37038;50.182;8.624;2023-02-28T12:38:26;8.85;;;7.57;;
51010;SDS011;37038;50.182;8.624;2023-02-28T12:41:17;10.38;;;8.43;;
51010;SDS011;37038;50.182;8.624;2023-02-28T12:44:30;9.63;;;7.97;;
51010;SDS011;37038;50.182;8.624;2023-02-28T12:47:22;8.07;;;7.28;;
51010;SDS011;37038;50.182;8.624;2023-02-28T12:50:10;9.52;;;8.50;;
51010;SDS011;37038;50.182;8.624;2023-02-28T12:59:10;8.93;;;7.57;;
51010;SDS011;37038;50.182;8.624;2023-02-28T13:11:53;9.93;;;8.07;;
51010;SDS011;37038;50.182;8.624;2023-02-28T13:14:43;10.98;;;8.02;;
51010;SDS011;37038;50.182;8.624;2023-02-28T13:17:33;9.15;;;7.45;;
51010;SDS011;37038;50.182;8.624;2023-02-28T13:20:36;9.10;;;7.75;;
51010;SDS011;37038;50.182;8.624;2023-02-28T13:29:34;8.38;;;7.55;;
51010;SDS011;37038;50.182;8.624;2023-02-28T13:32:33;8.45;;;7.22;;
51010;SDS011;37038;50.182;8.624;2023-02-28T13:35:37;8.63;;;6.85;;
51010;SDS011;37038;50.182;8.624;2023-02-28T13:38:36;8.93;;;7.53;;
51010;SDS011;37038;50.182;8.624;2023-02-28T13:44:22;9.90;;;7.95;;
51010;SDS011;37038;50.182;8.624;2023-02-28T13:47:19;8.32;;;7.40;;
51010;SDS011;37038;50.182;8.624;2023-02-28T13:56:21;9.10;;;8.20;;
51010;SDS011;37038;50.182;8.624;2023-02-28T14:03:01;8.95;;;7.68;;
51010;SDS011;37038;50.182;8.624;2023-02-28T14:09:30;9.10;;;8.20;;
51010;SDS011;37038;50.182;8.624;2023-02-28T14:21:56;10.93;;;7.75;;
51010;SDS011;37038;50.182;8.624;2023-02-28T14:25:18;8.25;;;7.45;;
51010;SDS011;37038;50.182;8.624;2023-02-28T14:36:04;8.98;;;7.90;;
51010;SDS011;37038;50.182;8.624;2023-02-28T14:39:51;9.32;;;8.07;;
51010;SDS011;37038;50.182;8.624;2023-02-28T14:42:54;11.25;;;9.40;;
51010;SDS011;37038;50.182;8.624;2023-02-28T14:45:49;12.88;;;8.70;;
51010;SDS011;37038;50.182;8.624;2023-02-28T14:48:44;9.13;;;8.23;;
51010;SDS011;37038;50.182;8.624;2023-02-28T14:51:36;12.60;;;8.93;;
51010;SDS011;37038;50.182;8.624;2023-02-28T14:54:24;11.50;;;8.45;;
51010;SDS011;37038;50.182;8.624;2023-02-28T15:00:42;9.20;;;8.07;;
51010;SDS011;37038;50.182;8.624;2023-02-28T15:03:38;12.57;;;9.27;;
51010;SDS011;37038;50.182;8.624;2023-02-28T15:06:29;9.18;;;8.27;;
51010;SDS011;37038;50.182;8.624;2023-02-28T15:09:20;9.27;;;8.20;;
51010;SDS011;37038;50.182;8.624;2023-02-28T15:12:11;10.07;;;8.70;;
51010;SDS011;37038;50.182;8.624;2023-02-28T15:15:02;12.07;;;8.57;;
51010;SDS011;37038;50.182;8.624;2023-02-28T15:17:51;9.40;;;8.20;;
51010;SDS011;37038;50.182;8.624;2023-02-28T15:20:43;8.80;;;7.83;;
51010;SDS011;37038;50.182;8.624;2023-02-28T15:23:32;9.18;;;8.20;;
51010;SDS011;37038;50.182;8.624;2023-02-28T15:26:25;10.75;;;9.00;;
51010;SDS011;37038;50.182;8.624;2023-02-28T15:29:22;10.65;;;9.13;;
51010;SDS011;37038;50.182;8.624;2023-02-28T15:32:26;10.80;;;9.38;;
51010;SDS011;37038;50.182;8.624;2023-02-28T15:38:17;10.30;;;8.32;;
51010;SDS011;37038;50.182;8.624;2023-02-28T15:41:21;9.40;;;8.48;;
51010;SDS011;37038;50.182;8.624;2023-02-28T15:44:17;9.77;;;8.23;;
51010;SDS011;37038;50.182;8.624;2023-02-28T15:47:21;10.52;;;8.68;;
51010;SDS011;37038;50.182;8.624;2023-02-28T15:50:12;11.85;;;9.43;;
51010;SDS011;37038;50.182;8.624;2023-02-28T15:53:04;9.77;;;8.35;;
51010;SDS011;37038;50.182;8.624;2023-02-28T15:56:22;11.15;;;9.07;;
51010;SDS011;37038;50.182;8.624;2023-02-28T15:59:48;11.25;;;9.27;;
51010;SDS011;37038;50.182;8.624;2023-02-28T16:05:25;12.80;;;9.32;;
51010;SDS011;37038;50.182;8.624;2023-02-28T16:08:19;12.40;;;9.68;;
51010;SDS011;37038;50.182;8.624;2023-02-28T16:11:08;10.60;;;9.30;;
51010;SDS011;37038;50.182;8.624;2023-02-28T16:13:57;12.52;;;9.90;;
51010;SDS011;37038;50.182;8.624;2023-02-28T16:16:46;14.25;;;8.88;;
51010;SDS011;37038;50.182;8.624;2023-02-28T16:19:37;14.00;;;9.93;;
51010;SDS011;37038;50.182;8.624;2023-02-28T16:22:27;12.40;;;9.52;;
51010;SDS011;37038;50.182;8.624;2023-02-28T16:25:16;12.48;;;9.98;;
51010;SDS011;37038;50.182;8.624;2023-02-28T16:28:12;12.02;;;9.93;;
51010;SDS011;37038;50.182;8.624;2023-02-28T16:31:07;12.73;;;10.10;;
51010;SDS011;37038;50.182;8.624;2023-02-28T16:33:55;13.45;;;8.65;;
51010;SDS011;37038;50.182;8.624;2023-02-28T16:36:48;15.13;;;10.15;;
51010;SDS011;37038;50.182;8.624;2023-02-28T16:39:37;16.38;;;10.10;;
51010;SDS011;37038;50.182;8.624;2023-02-28T16:42:26;10.60;;;9.50;;
51010;SDS011;37038;50.182;8.624;2023-02-28T16:45:18;13.13;;;9.70;;
51010;SDS011;37038;50.182;8.624;2023-02-28T16:48:15;12.70;;;9.60;;
51010;SDS011;37038;50.182;8.624;2023-02-28T16:51:04;12.80;;;9.57;;
51010;SDS011;37038;50.182;8.624;2023-02-28T16:53:51;13.15;;;10.10;;
51010;SDS011;37038;50.182;8.624;2023-02-28T16:56:40;11.85;;;9.50;;
51010;SDS011;37038;50.182;8.624;2023-02-28T16:59:31;13.68;;;9.30;;
51010;SDS011;37038;50.182;8.624;2023-02-28T17:02:19;12.63;;;9.45;;
51010;SDS011;37038;50.182;8.624;2023-02-28T17:05:08;14.32;;;9.50;;
51010;SDS011;37038;50.182;8.624;2023-02-28T17:08:00;13.23;;;10.25;;
51010;SDS011;37038;50.182;8.624;2023-02-28T17:10:47;12.60;;;9.50;;
51010;SDS011;37038;50.182;8.624;2023-02-28T17:13:35;11.40;;;9.93;;
51010;SDS011;37038;50.182;8.624;2023-02-28T17:16:25;11.75;;;9.27;;
51010;SDS011;37038;50.182;8.624;2023-02-28T17:19:18;14.82;;;10.30;;
51010;SDS011;37038;50.182;8.624;2023-02-28T17:22:07;13.43;;;9.88;;
51010;SDS011;37038;50.182;8.624;2023-02-28T17:24:56;10.73;;;9.23;;
51010;SDS011;37038;50.182;8.624;2023-02-28T17:27:44;12.35;;;9.95;;
51010;SDS011;37038;50.182;8.624;2023-02-28T17:30:32;15.88;;;10.48;;
51010;SDS011;37038;50.182;8.624;2023-02-28T17:33:22;15.35;;;10.80;;
51010;SDS011;37038;50.182;8.624;2023-02-28T17:36:13;15.52;;;11.25;;
51010;SDS011;37038;50.182;8.624;2023-02-28T17:39:03;15.35;;;11.30;;
51010;SDS011;37038;50.182;8.624;2023-02-28T17:41:55;17.73;;;11.75;;
51010;SDS011;37038;50.182;8.624;2023-02-28T17:44:43;14.43;;;10.65;;
51010;SDS011;37038;50.182;8.624;2023-02-28T17:47:31;16.15;;;11.32;;
51010;SDS011;37038;50.182;8.624;2023-02-28T17:50:19;14.68;;;11.60;;
51010;SDS011;37038;50.182;8.624;2023-02-28T17:53:08;13.93;;;10.82;;
51010;SDS011;37038;50.182;8.624;2023-02-28T17:55:56;14.80;;;11.18;;
51010;SDS011;37038;50.182;8.624;2023-02-28T17:58:44;18.67;;;10.70;;
51010;SDS011;37038;50.182;8.624;2023-02-28T18:01:31;15.82;;;10.70;;
51010;SDS011;37038;50.182;8.624;2023-02-28T18:04:19;14.55;;;11.52;;
51010;SDS011;37038;50.182;8.624;2023-02-28T18:07:09;14.20;;;10.50;;
51010;SDS011;37038;50.182;8.624;2023-02-28T18:09:58;15.32;;;10.80;;
51010;SDS011;37038;50.182;8.624;2023-02-28T18:12:47;18.58;;;11.65;;
51010;SDS011;37038;50.182;8.624;2023-02-28T18:15:36;15.43;;;11.55;;
51010;SDS011;37038;50.182;8.624;2023-02-28T18:18:26;19.10;;;12.05;;
51010;SDS011;37038;50.182;8.624;2023-02-28T18:21:16;14.70;;;11.57;;
51010;SDS011;37038;50.182;8.624;2023-02-28T18:24:04;13.98;;;11.48;;
51010;SDS011;37038;50.182;8.624;2023-02-28T18:26:55;15.45;;;11.50;;
51010;SDS011;37038;50.182;8.624;2023-02-28T18:29:43;16.10;;;11.73;;
51010;SDS011;37038;50.182;8.624;2023-02-28T18:32:31;15.45;;;11.85;;
51010;SDS011;37038;50.182;8.624;2023-02-28T18:35:19;19.58;;;12.90;;
51010;SDS011;37038;50.182;8.624;2023-02-28T18:38:23;21.73;;;13.93;;
51010;SDS011;37038;50.182;8.624;2023-02-28T18:41:10;20.10;;;12.30;;
51010;SDS011;37038;50.182;8.624;2023-02-28T18:44:00;18.08;;;12.48;;
51010;SDS011;37038;50.182;8.624;2023-02-28T18:47:04;15.13;;;12.43;;
51010;SDS011;37038;50.182;8.624;2023-02-28T18:50:00;14.93;;;12.10;;
51010;SDS011;37038;50.182;8.624;2023-02-28T18:52:49;16.98;;;13.45;;
51010;SDS011;37038;50.182;8.624;2023-02-28T18:55:37;15.77;;;12.45;;
51010;SDS011;37038;50.182;8.624;2023-02-28T18:58:25;15.52;;;13.02;;
51010;SDS011;37038;50.182;8.624;2023-02-28T19:01:23;19.85;;;14.57;;
51010;SDS011;37038;50.182;8.624;2023-02-28T19:04:16;18.27;;;14.05;;
51010;SDS011;37038;50.182;8.624;2023-02-28T19:07:04;18.25;;;12.98;;
51010;SDS011;37038;50.182;8.624;2023-02-28T19:09:53;18.52;;;12.52;;
51010;SDS011;37038;50.182;8.624;2023-02-28T19:12:41;14.38;;;12.88;;
51010;SDS011;37038;50.182;8.624;2023-02-28T19:15:29;16.40;;;13.40;;
51010;SDS011;37038;50.182;8.624;2023-02-28T19:18:17;15.45;;;12.35;;
51010;SDS011;37038;50.182;8.624;2023-02-28T19:21:08;18.70;;;13.70;;
51010;SDS011;37038;50.182;8.624;2023-02-28T19:24:03;17.48;;;13.13;;
51010;SDS011;37038;50.182;8.624;2023-02-28T19:26:52;17.13;;;12.82;;
51010;SDS011;37038;50.182;8.624;2023-02-28T19:29:39;19.08;;;12.35;;
51010;SDS011;37038;50.182;8.624;2023-02-28T19:32:30;15.10;;;13.38;;
51010;SDS011;37038;50.182;8.624;2023-02-28T19:35:18;21.42;;;13.75;;